Time;durP1;ratioP1;P1;durP2;ratioP2;P2;SDS_P1;SDS_P2;PMS_P1;PMS_P2;Temp;Humidity;BMP_temperature;BMP_pressure;BME280_temperature;BME280_humidity;BME280_pressure;Samples;Min_cycle;Max_cycle;Signal;HPM_P1;HPM_P2
2022/01/20 00:01:45;;;;;;;11.52;4.45;;;4.70;99.90;;;;;;5033847;28;20732;-67
2022/01/20 00:04:17;;;;;;;10.80;3.72;;;4.60;99.90;;;;;;5013444;28;20294;-67
2022/01/20 00:26:20;;;;;;;6.20;3.00;;;4.10;99.90;;;;;;5009981;28;20304;-64
2022/01/20 00:28:50;;;;;;;5.72;3.55;;;4.00;99.90;;;;;;5011058;28;20352;-66
2022/01/20 00:31:33;;;;;;;6.22;3.25;;;4.00;99.90;;;;;;5021774;28;20210;-65
2022/01/20 00:34:12;;;;;;;4.78;2.72;;;4.00;99.90;;;;;;5018516;28;20292;-65
2022/01/20 00:39:26;;;;;;;19.98;3.60;;;3.90;99.90;;;;;;5008542;28;20214;-67
2022/01/20 00:41:54;;;;;;;3.45;2.80;;;3.90;99.90;;;;;;5012186;28;20286;-67
2022/01/20 00:44:21;;;;;;;7.38;2.03;;;3.90;99.90;;;;;;5017939;28;20241;-67
2022/01/20 00:46:48;;;;;;;2.35;2.15;;;3.90;99.90;;;;;;5010372;28;20240;-66
2022/01/20 00:49:15;;;;;;;5.85;2.55;;;3.90;99.90;;;;;;5020062;28;20649;-66
2022/01/20 00:51:42;;;;;;;7.72;2.10;;;3.90;99.90;;;;;;5018889;28;20288;-66
2022/01/20 00:54:09;;;;;;;11.35;2.58;;;3.80;99.90;;;;;;5022591;28;20250;-66
2022/01/20 00:56:37;;;;;;;3.22;1.98;;;3.80;99.90;;;;;;5016106;28;20210;-66
2022/01/20 01:22:40;;;;;;;4.00;2.72;;;3.40;99.90;;;;;;5009926;28;20231;-66
2022/01/20 01:25:07;;;;;;;3.50;1.63;;;3.50;99.90;;;;;;5016134;28;20234;-66
2022/01/20 01:27:38;;;;;;;9.52;2.67;;;3.40;99.90;;;;;;5014987;28;20289;-66
2022/01/20 01:30:13;;;;;;;21.77;1.70;;;3.40;99.90;;;;;;5016225;28;20209;-66
2022/01/20 01:32:49;;;;;;;8.32;2.25;;;3.40;99.90;;;;;;5014124;28;20277;-66
2022/01/20 01:35:16;;;;;;;3.28;2.35;;;3.40;99.90;;;;;;5014619;28;20721;-66
2022/01/20 01:40:30;;;;;;;5.22;2.85;;;3.40;99.90;;;;;;5019903;28;20228;-66
2022/01/20 01:43:01;;;;;;;6.90;1.65;;;3.50;99.90;;;;;;5008545;28;20657;-66
2022/01/20 01:45:32;;;;;;;9.10;3.28;;;3.50;99.90;;;;;;5006146;28;20306;-66
2022/01/20 01:47:59;;;;;;;12.57;3.60;;;3.60;99.90;;;;;;5019490;28;20581;-66
2022/01/20 01:50:26;;;;;;;6.15;2.10;;;3.50;99.90;;;;;;5009632;28;20257;-66
2022/01/20 01:52:56;;;;;;;3.35;2.33;;;3.50;99.90;;;;;;5017406;28;20740;-65
2022/01/20 01:55:23;;;;;;;2.95;2.70;;;3.50;99.90;;;;;;5014564;28;20234;-66
2022/01/20 01:57:50;;;;;;;12.65;2.80;;;3.60;99.90;;;;;;5006529;28;20692;-66
2022/01/20 02:00:18;;;;;;;5.05;3.47;;;3.60;99.90;;;;;;5018816;28;20203;-67
2022/01/20 02:02:45;;;;;;;25.83;3.78;;;3.70;99.90;;;;;;5027849;28;20260;-65
2022/01/20 02:05:15;;;;;;;6.78;3.05;;;3.80;99.90;;;;;;5025568;28;20572;-65
2022/01/20 02:18:47;;;;;;;3.60;2.42;;;3.90;99.90;;;;;;5012505;28;20300;-66
2022/01/20 02:21:15;;;;;;;4.57;2.03;;;3.90;99.90;;;;;;5018846;28;20199;-67
2022/01/20 02:23:44;;;;;;;5.57;3.17;;;3.90;99.90;;;;;;5027640;28;20198;-67
2022/01/20 02:26:10;;;;;;;5.80;3.20;;;3.90;99.90;;;;;;5017342;28;20235;-68
2022/01/20 02:28:37;;;;;;;10.05;4.20;;;3.90;99.90;;;;;;5009113;28;20662;-67
2022/01/20 02:31:05;;;;;;;4.78;3.10;;;4.00;99.90;;;;;;5020199;28;20206;-67
2022/01/20 02:33:32;;;;;;;10.75;2.40;;;3.90;99.90;;;;;;5021016;28;20289;-65
2022/01/20 02:36:02;;;;;;;6.88;3.90;;;4.00;99.90;;;;;;5020768;28;20231;-67
2022/01/20 02:38:36;;;;;;;5.90;2.35;;;4.00;99.90;;;;;;5025769;28;20203;-65
2022/01/20 02:46:32;;;;;;;5.03;2.15;;;4.10;99.90;;;;;;5016789;28;20606;-65
2022/01/20 02:48:59;;;;;;;11.73;3.15;;;4.10;99.90;;;;;;5017732;28;20196;-67
2022/01/20 02:51:26;;;;;;;3.75;2.70;;;4.10;99.90;;;;;;5022663;28;20202;-67
2022/01/20 02:53:54;;;;;;;3.35;3.05;;;4.10;99.90;;;;;;5014292;28;20226;-65
2022/01/20 02:56:21;;;;;;;13.70;3.08;;;4.10;99.90;;;;;;5024093;28;20275;-64
2022/01/20 02:58:48;;;;;;;6.93;2.30;;;4.00;99.90;;;;;;5013071;28;20264;-65
2022/01/20 03:01:15;;;;;;;5.35;1.67;;;4.00;99.90;;;;;;5022809;28;20291;-66
2022/01/20 03:03:42;;;;;;;4.30;2.25;;;4.00;99.90;;;;;;5022514;28;20676;-66
2022/01/20 03:06:08;;;;;;;3.92;2.17;;;3.90;99.90;;;;;;5025584;28;20285;-67
2022/01/20 03:08:36;;;;;;;4.85;2.03;;;3.90;99.90;;;;;;5008239;28;20211;-66
2022/01/20 03:11:04;;;;;;;2.00;1.80;;;3.90;99.90;;;;;;5021897;28;20206;-67
2022/01/20 03:13:31;;;;;;;3.13;2.00;;;3.90;99.90;;;;;;5009896;28;20692;-67
2022/01/20 03:15:57;;;;;;;3.85;1.20;;;4.10;99.90;;;;;;5018261;28;20238;-67
2022/01/20 03:18:24;;;;;;;3.80;1.50;;;4.10;99.90;;;;;;5023713;28;20207;-67
2022/01/20 03:20:51;;;;;;;13.65;3.08;;;4.10;99.90;;;;;;5015967;28;20294;-66
2022/01/20 03:23:17;;;;;;;1.02;0.93;;;4.00;99.90;;;;;;5011843;28;20223;-66
2022/01/20 03:25:44;;;;;;;1.20;1.10;;;4.00;99.90;;;;;;5010412;28;20264;-65
2022/01/20 03:28:12;;;;;;;3.70;1.70;;;3.90;99.90;;;;;;5006435;28;20203;-66
2022/01/20 03:30:39;;;;;;;7.70;1.73;;;3.80;99.90;;;;;;5010449;28;20583;-67
2022/01/20 03:33:05;;;;;;;2.60;1.40;;;3.80;99.90;;;;;;5019987;28;20222;-65
2022/01/20 03:35:32;;;;;;;14.90;2.30;;;3.80;99.90;;;;;;5014944;28;20264;-65
2022/01/20 03:37:59;;;;;;;6.28;1.90;;;3.70;99.90;;;;;;5025362;28;20305;-66
2022/01/20 03:40:26;;;;;;;3.30;1.52;;;3.70;99.90;;;;;;5025998;28;20207;-65
2022/01/20 03:42:53;;;;;;;24.13;2.17;;;3.70;99.90;;;;;;5012557;28;20271;-66
2022/01/20 03:45:25;;;;;;;4.13;2.15;;;3.70;99.90;;;;;;5012960;28;20739;-67
2022/01/20 03:47:54;;;;;;;2.13;0.77;;;3.70;99.90;;;;;;5012393;28;20207;-65
2022/01/20 03:53:06;;;;;;;4.10;1.60;;;3.70;99.90;;;;;;5014957;28;20230;-65
2022/01/20 03:55:33;;;;;;;8.52;1.60;;;3.80;99.90;;;;;;5018377;28;20219;-65
2022/01/20 03:57:59;;;;;;;4.32;1.88;;;3.80;99.90;;;;;;5007254;28;20209;-66
2022/01/20 04:00:28;;;;;;;11.15;1.52;;;3.90;99.90;;;;;;5015645;28;20226;-66
2022/01/20 04:02:55;;;;;;;2.15;0.90;;;3.90;99.90;;;;;;5020148;28;20272;-66
2022/01/20 04:05:21;;;;;;;1.35;0.70;;;3.90;99.90;;;;;;5015714;28;20334;-65
2022/01/20 04:07:48;;;;;;;9.18;3.25;;;4.00;99.90;;;;;;5010798;28;20249;-66
2022/01/20 04:10:14;;;;;;;4.13;2.38;;;4.00;99.90;;;;;;5015622;28;20210;-66
2022/01/20 04:12:41;;;;;;;1.52;0.60;;;4.10;99.90;;;;;;5025883;28;20199;-66
2022/01/20 04:15:09;;;;;;;8.80;1.80;;;4.00;99.90;;;;;;5024155;28;20354;-66
2022/01/20 04:17:41;;;;;;;3.17;1.02;;;4.00;99.90;;;;;;5027457;28;20235;-66
2022/01/20 04:20:09;;;;;;;1.23;1.05;;;3.90;99.90;;;;;;5022567;28;20207;-66
2022/01/20 04:22:36;;;;;;;3.80;2.15;;;3.80;99.90;;;;;;5023741;28;20222;-66
2022/01/20 04:25:03;;;;;;;2.22;1.10;;;3.70;99.90;;;;;;5019492;28;20258;-64
2022/01/20 04:27:30;;;;;;;1.25;1.13;;;3.70;99.90;;;;;;5021622;28;20203;-64
2022/01/20 04:29:57;;;;;;;1.60;1.50;;;3.60;99.90;;;;;;5008616;28;20203;-64
2022/01/20 04:32:24;;;;;;;4.78;1.65;;;3.70;99.90;;;;;;5016426;28;20199;-66
2022/01/20 04:34:52;;;;;;;0.90;0.73;;;3.80;99.90;;;;;;5020294;28;20319;-66
2022/01/20 04:37:19;;;;;;;1.13;1.00;;;3.80;99.90;;;;;;5023907;28;20213;-66
2022/01/20 04:39:48;;;;;;;2.47;1.13;;;3.90;99.90;;;;;;5022499;28;20199;-64
2022/01/20 04:42:17;;;;;;;9.10;3.03;;;3.80;99.90;;;;;;5021378;28;20209;-64
2022/01/20 04:44:48;;;;;;;4.53;1.33;;;3.80;99.90;;;;;;5011776;28;20676;-65
2022/01/20 04:47:26;;;;;;;0.93;0.90;;;3.80;99.90;;;;;;5020751;28;20210;-66
2022/01/20 04:58:06;;;;;;;2.08;1.25;;;3.90;99.90;;;;;;5021391;28;20641;-64
2022/01/20 05:00:32;;;;;;;1.48;0.77;;;3.90;99.90;;;;;;5018853;28;20219;-67
2022/01/20 05:03:01;;;;;;;1.45;1.02;;;3.90;99.90;;;;;;5015957;28;20776;-66
2022/01/20 05:05:29;;;;;;;3.45;1.23;;;4.00;99.90;;;;;;5024463;28;20264;-66
2022/01/20 05:07:56;;;;;;;8.50;2.28;;;4.00;99.90;;;;;;5024274;28;20688;-66
2022/01/20 05:10:23;;;;;;;4.07;1.13;;;4.10;99.90;;;;;;5009014;28;20258;-66
2022/01/20 05:13:05;;;;;;;1.65;1.00;;;4.10;99.90;;;;;;5014699;28;20203;-67
2022/01/20 05:15:33;;;;;;;1.75;1.13;;;4.10;99.90;;;;;;5018448;28;20218;-64
2022/01/20 05:18:00;;;;;;;0.80;0.73;;;4.10;99.90;;;;;;5022386;28;20250;-67
2022/01/20 05:20:28;;;;;;;0.75;0.75;;;4.10;99.90;;;;;;5015207;28;20198;-66
2022/01/20 05:22:55;;;;;;;4.15;1.25;;;4.10;99.90;;;;;;5020657;28;20587;-65
2022/01/20 05:27:53;;;;;;;11.48;1.67;;;4.00;99.90;;;;;;5050849;28;20742;-70
2022/01/20 05:30:19;;;;;;;8.48;1.38;;;4.00;99.90;;;;;;5055869;28;20596;-71
2022/01/20 05:32:46;;;;;;;0.95;0.95;;;4.10;99.90;;;;;;5055847;28;20453;-70
2022/01/20 05:35:13;;;;;;;1.95;1.73;;;4.10;99.90;;;;;;5053756;28;20276;-71
2022/01/20 05:37:41;;;;;;;4.63;1.10;;;4.20;99.90;;;;;;5051566;28;20198;-70
2022/01/20 05:40:09;;;;;;;1.73;0.80;;;4.20;99.90;;;;;;5051382;28;20198;-69
2022/01/20 05:42:37;;;;;;;5.65;1.52;;;4.30;99.90;;;;;;5046232;28;20660;-70
2022/01/20 05:45:05;;;;;;;1.90;1.65;;;4.30;99.90;;;;;;5051302;28;20190;-69
2022/01/20 05:47:33;;;;;;;3.20;1.60;;;4.30;99.90;;;;;;5043574;28;20494;-70
2022/01/20 05:50:00;;;;;;;1.23;1.15;;;4.30;99.90;;;;;;5048462;28;20213;-70
2022/01/20 05:52:26;;;;;;;1.50;1.38;;;4.20;99.90;;;;;;5048873;28;20201;-70
2022/01/20 05:54:54;;;;;;;1.80;1.33;;;4.20;99.90;;;;;;5042608;28;20283;-71
2022/01/20 05:57:21;;;;;;;3.28;1.60;;;4.20;99.90;;;;;;5040533;28;20284;-69
2022/01/20 05:59:48;;;;;;;3.55;1.52;;;4.20;99.90;;;;;;5044085;28;20209;-71
2022/01/20 06:02:29;;;;;;;3.70;2.67;;;4.30;99.90;;;;;;5050272;28;20198;-70
2022/01/20 06:04:56;;;;;;;7.07;1.45;;;4.30;99.90;;;;;;5048172;28;20206;-70
2022/01/20 06:07:22;;;;;;;1.45;1.35;;;4.30;99.90;;;;;;5051171;28;20218;-71
2022/01/20 06:09:49;;;;;;;3.72;1.35;;;4.30;99.90;;;;;;5051055;28;20208;-70
2022/01/20 06:12:17;;;;;;;0.70;0.70;;;4.30;99.90;;;;;;5055955;28;20202;-70
2022/01/20 06:14:44;;;;;;;3.75;1.40;;;4.30;99.90;;;;;;5049026;28;20245;-70
2022/01/20 06:17:11;;;;;;;5.00;1.17;;;4.30;99.90;;;;;;5050339;28;20275;-69
2022/01/20 06:19:37;;;;;;;0.80;0.80;;;4.30;99.90;;;;;;5050131;28;20221;-71
2022/01/20 06:22:04;;;;;;;0.65;0.52;;;4.30;99.90;;;;;;5049522;28;20388;-70
2022/01/20 06:24:31;;;;;;;1.13;0.90;;;4.30;99.90;;;;;;5049364;28;20272;-68
2022/01/20 06:26:58;;;;;;;0.50;0.50;;;4.30;99.90;;;;;;5049952;28;20261;-68
2022/01/20 06:29:26;;;;;;;2.22;1.10;;;4.20;99.90;;;;;;5054840;28;20225;-68
2022/01/20 06:31:52;;;;;;;0.68;0.55;;;4.10;99.90;;;;;;5054935;28;20719;-68
2022/01/20 06:34:19;;;;;;;0.50;0.50;;;4.00;99.90;;;;;;5049691;28;20274;-68
2022/01/20 06:36:47;;;;;;;1.13;0.85;;;4.00;99.90;;;;;;5038896;28;20275;-68
2022/01/20 06:39:13;;;;;;;1.38;1.08;;;4.00;99.90;;;;;;5045345;28;20225;-68
2022/01/20 06:41:40;;;;;;;0.70;0.70;;;3.90;99.90;;;;;;5049955;28;20686;-68
2022/01/20 06:44:07;;;;;;;1.23;1.05;;;3.80;99.90;;;;;;5049149;28;20198;-69
2022/01/20 06:46:35;;;;;;;3.78;1.83;;;3.70;99.90;;;;;;5047771;28;20240;-69
2022/01/20 06:49:02;;;;;;;0.65;0.65;;;3.60;99.90;;;;;;5050979;28;20255;-69
2022/01/20 06:51:29;;;;;;;4.05;0.77;;;3.60;99.90;;;;;;5059105;28;20209;-69
2022/01/20 06:53:56;;;;;;;1.08;0.95;;;3.60;99.90;;;;;;5048956;28;20218;-69
2022/01/20 06:56:23;;;;;;;3.10;1.48;;;3.60;99.90;;;;;;5049701;28;20248;-68
2022/01/20 06:58:50;;;;;;;1.35;1.02;;;3.50;99.90;;;;;;5063944;28;20210;-69
2022/01/20 07:01:17;;;;;;;0.50;0.45;;;3.50;99.90;;;;;;5048102;28;20202;-68
2022/01/20 07:03:45;;;;;;;1.13;0.50;;;3.50;99.90;;;;;;5049950;28;20672;-69
2022/01/20 07:06:12;;;;;;;1.45;1.17;;;3.40;99.90;;;;;;5049325;28;20226;-69
2022/01/20 07:08:38;;;;;;;1.48;0.75;;;3.40;99.90;;;;;;5057128;28;20206;-68
2022/01/20 07:11:06;;;;;;;0.93;0.90;;;3.40;99.90;;;;;;5044399;28;20574;-69
2022/01/20 07:13:35;;;;;;;3.50;0.57;;;3.30;99.90;;;;;;5049094;28;20202;-69
2022/01/20 07:16:01;;;;;;;4.95;2.30;;;3.30;99.90;;;;;;5049752;28;20229;-69
2022/01/20 07:18:28;;;;;;;3.13;0.68;;;3.30;99.90;;;;;;5050588;28;20214;-69
2022/01/20 07:20:56;;;;;;;3.30;0.93;;;3.30;99.90;;;;;;5050918;28;20550;-68
2022/01/20 07:23:23;;;;;;;0.85;0.82;;;3.30;99.90;;;;;;5050281;28;20202;-68
2022/01/20 07:25:49;;;;;;;0.90;0.52;;;3.30;99.90;;;;;;5048746;28;20222;-69
2022/01/20 07:28:16;;;;;;;3.35;0.93;;;3.40;99.90;;;;;;5058595;28;20259;-70
2022/01/20 07:30:43;;;;;;;1.80;0.93;;;3.40;99.90;;;;;;5050076;28;20573;-69
2022/01/20 07:33:10;;;;;;;2.85;0.95;;;3.40;99.90;;;;;;5054316;28;20206;-68
2022/01/20 07:35:38;;;;;;;2.30;1.63;;;3.50;99.90;;;;;;5048478;28;20221;-69
2022/01/20 07:38:07;;;;;;;8.57;0.95;;;3.40;99.90;;;;;;5050405;28;20206;-69
2022/01/20 07:40:35;;;;;;;3.40;1.42;;;3.40;99.90;;;;;;5048133;28;20252;-68
2022/01/20 07:43:02;;;;;;;2.25;1.65;;;3.50;99.90;;;;;;5050641;28;20253;-68
2022/01/20 07:45:29;;;;;;;3.10;1.63;;;3.50;99.90;;;;;;5048650;28;20198;-70
2022/01/20 07:47:56;;;;;;;0.85;0.73;;;3.50;99.90;;;;;;5055400;28;20659;-69
2022/01/20 07:50:22;;;;;;;5.75;1.63;;;3.60;99.90;;;;;;5049552;28;20271;-69
2022/01/20 07:52:49;;;;;;;3.83;1.55;;;3.60;99.90;;;;;;5048475;28;20209;-69
2022/01/20 07:55:17;;;;;;;0.50;0.50;;;3.60;99.90;;;;;;5049449;28;20279;-68
2022/01/20 07:57:44;;;;;;;0.82;0.80;;;3.60;99.90;;;;;;5048899;28;20668;-68
2022/01/20 08:00:12;;;;;;;2.10;1.13;;;3.60;99.90;;;;;;5048044;28;20209;-71
2022/01/20 08:02:38;;;;;;;7.20;1.10;;;3.70;99.90;;;;;;5047418;28;20509;-69
2022/01/20 08:05:06;;;;;;;2.15;0.88;;;3.70;99.90;;;;;;5051319;28;20198;-69
2022/01/20 08:07:33;;;;;;;5.43;1.30;;;3.80;99.90;;;;;;5048692;28;20769;-68
2022/01/20 08:09:59;;;;;;;7.57;1.17;;;3.80;99.90;;;;;;5049213;28;20220;-70
2022/01/20 08:12:29;;;;;;;0.80;0.68;;;3.80;99.90;;;;;;5041954;28;20205;-69
2022/01/20 08:14:58;;;;;;;6.15;1.38;;;3.70;99.90;;;;;;5049288;28;20210;-69
2022/01/20 08:17:25;;;;;;;3.00;1.10;;;3.80;99.90;;;;;;5048711;28;20229;-69
2022/01/20 08:19:53;;;;;;;2.55;0.85;;;3.80;99.90;;;;;;5048785;28;20206;-69
2022/01/20 08:22:20;;;;;;;4.03;1.98;;;3.80;99.90;;;;;;5048628;28;20202;-69
2022/01/20 08:24:51;;;;;;;2.92;2.63;;;3.70;99.90;;;;;;5050278;28;20194;-69
2022/01/20 08:27:18;;;;;;;1.70;1.10;;;3.70;99.90;;;;;;5048393;28;20719;-69
2022/01/20 08:29:46;;;;;;;6.78;1.13;;;3.60;99.90;;;;;;5058745;28;20198;-68
2022/01/20 08:32:13;;;;;;;1.50;1.40;;;3.50;99.90;;;;;;5050546;28;20222;-69
2022/01/20 08:34:40;;;;;;;6.60;1.45;;;3.40;99.90;;;;;;5054472;28;20279;-68
2022/01/20 08:37:06;;;;;;;3.10;0.88;;;3.40;99.90;;;;;;5048908;28;20710;-70
2022/01/20 08:39:43;;;;;;;1.70;0.88;;;3.40;99.90;;;;;;5047876;28;20591;-67
2022/01/20 08:42:10;;;;;;;1.35;0.95;;;3.60;99.90;;;;;;5049152;28;20305;-67
2022/01/20 08:44:37;;;;;;;5.25;1.55;;;4.00;99.90;;;;;;5051759;28;20210;-69
2022/01/20 08:47:09;;;;;;;1.33;0.70;;;4.40;99.90;;;;;;5048446;28;20252;-69
2022/01/20 08:49:36;;;;;;;4.60;1.25;;;4.60;99.90;;;;;;5048364;28;20202;-69
2022/01/20 08:52:04;;;;;;;6.88;2.65;;;4.70;99.90;;;;;;5048545;28;20251;-69
2022/01/20 08:54:30;;;;;;;1.50;0.60;;;4.80;99.90;;;;;;5047534;28;20198;-69
2022/01/20 08:56:57;;;;;;;0.60;0.60;;;4.80;99.90;;;;;;5045732;28;20781;-70
2022/01/20 08:59:26;;;;;;;8.38;2.22;;;4.80;99.90;;;;;;5050118;28;20213;-69
2022/01/20 09:01:53;;;;;;;3.00;0.80;;;4.70;99.90;;;;;;5054733;28;20255;-69
2022/01/20 09:04:21;;;;;;;4.75;1.77;;;4.70;99.90;;;;;;5050172;28;20209;-69
2022/01/20 09:06:48;;;;;;;1.77;0.95;;;4.60;99.90;;;;;;5046489;28;20217;-69
2022/01/20 09:09:17;;;;;;;0.70;0.70;;;4.60;99.90;;;;;;5047712;28;20208;-70
2022/01/20 09:11:52;;;;;;;2.60;1.02;;;4.70;99.90;;;;;;5046744;28;20690;-69
2022/01/20 09:17:04;;;;;;;9.63;1.13;;;4.60;99.90;;;;;;5052255;28;20220;-70
2022/01/20 09:19:32;;;;;;;0.60;0.57;;;4.50;99.90;;;;;;5049883;28;20947;-70
2022/01/20 09:21:58;;;;;;;6.20;1.83;;;4.30;99.90;;;;;;5052486;28;20205;-70
2022/01/20 09:24:26;;;;;;;0.80;0.80;;;4.40;99.90;;;;;;5057337;28;20717;-70
2022/01/20 09:26:53;;;;;;;0.52;0.40;;;4.60;99.90;;;;;;5044469;28;20229;-70
2022/01/20 09:29:19;;;;;;;1.45;0.93;;;5.00;99.90;;;;;;5051371;28;20205;-70
2022/01/20 09:31:49;;;;;;;2.17;1.20;;;5.50;99.90;;;;;;5060075;28;20276;-73
2022/01/20 09:34:16;;;;;;;10.88;7.00;;;5.90;99.90;;;;;;5056889;28;20579;-74
2022/01/20 09:36:45;;;;;;;1.00;0.95;;;6.20;99.90;;;;;;5059681;28;20707;-70
2022/01/20 09:39:12;;;;;;;3.50;0.80;;;6.30;99.90;;;;;;5052663;28;20292;-69
2022/01/20 09:41:38;;;;;;;3.67;1.70;;;6.10;99.90;;;;;;5048534;28;20205;-70
2022/01/20 09:44:06;;;;;;;1.77;1.00;;;5.90;99.90;;;;;;5051242;28;20591;-70
2022/01/20 09:46:32;;;;;;;1.08;0.90;;;5.60;99.90;;;;;;5045420;28;20237;-69
2022/01/20 09:48:59;;;;;;;3.55;1.23;;;5.50;99.90;;;;;;5051330;28;20198;-70
2022/01/20 09:51:26;;;;;;;3.45;1.45;;;5.50;99.90;;;;;;5051251;28;20198;-68
2022/01/20 09:53:54;;;;;;;20.73;2.83;;;5.50;99.90;;;;;;5053649;28;20264;-68
2022/01/20 09:56:22;;;;;;;1.13;0.68;;;5.50;99.90;;;;;;5049764;28;20645;-70
2022/01/20 09:58:49;;;;;;;2.55;0.70;;;5.50;99.90;;;;;;5051076;28;20702;-67
2022/01/20 10:01:17;;;;;;;3.92;1.77;;;5.50;99.90;;;;;;5050530;28;20260;-70
2022/01/20 10:03:47;;;;;;;3.45;1.50;;;5.50;99.90;;;;;;5055997;28;20263;-69
2022/01/20 10:06:14;;;;;;;0.88;0.60;;;5.50;99.90;;;;;;5054787;28;20219;-70
2022/01/20 10:08:41;;;;;;;1.48;0.60;;;5.40;99.90;;;;;;5051779;28;20206;-68
2022/01/20 10:11:10;;;;;;;0.50;0.50;;;5.40;99.90;;;;;;5061577;28;20209;-68
2022/01/20 10:13:38;;;;;;;0.50;0.50;;;5.40;99.90;;;;;;5054568;28;20238;-70
2022/01/20 10:16:07;;;;;;;0.70;0.55;;;5.50;99.90;;;;;;5045165;28;20226;-72
2022/01/20 10:18:45;;;;;;;1.23;1.13;;;5.70;99.90;;;;;;5051041;28;20214;-69
2022/01/20 10:21:12;;;;;;;2.47;0.57;;;5.80;99.90;;;;;;5053112;28;20294;-70
2022/01/20 10:23:41;;;;;;;4.60;0.70;;;5.80;99.90;;;;;;5059498;28;20206;-71
2022/01/20 10:26:12;;;;;;;5.28;0.95;;;5.80;99.90;;;;;;5048831;28;20237;-69
2022/01/20 10:28:47;;;;;;;2.28;0.77;;;5.80;99.90;;;;;;5044186;28;20210;-72
2022/01/20 10:31:15;;;;;;;4.40;1.13;;;5.90;99.90;;;;;;5051127;28;20209;-71
2022/01/20 10:33:42;;;;;;;0.77;0.77;;;6.20;99.90;;;;;;5050316;28;20561;-69
2022/01/20 10:36:09;;;;;;;3.60;0.93;;;6.60;99.90;;;;;;5050668;28;20707;-72
2022/01/20 10:38:36;;;;;;;0.95;0.50;;;6.80;99.90;;;;;;5051504;28;20205;-70
2022/01/20 10:41:04;;;;;;;3.10;1.48;;;6.80;99.90;;;;;;5052023;28;20677;-69
2022/01/20 10:43:34;;;;;;;1.80;1.33;;;6.70;99.90;;;;;;5046207;28;20241;-70
2022/01/20 10:46:06;;;;;;;0.93;0.57;;;6.70;99.90;;;;;;5051958;28;20249;-70
2022/01/20 10:48:33;;;;;;;0.93;0.65;;;6.30;99.90;;;;;;5049520;28;20197;-69
2022/01/20 10:51:00;;;;;;;2.92;0.68;;;6.20;99.90;;;;;;5051830;28;20236;-69
2022/01/20 10:53:27;;;;;;;2.42;0.73;;;6.10;99.90;;;;;;5055072;28;20263;-71
2022/01/20 10:56:05;;;;;;;1.17;0.60;;;6.10;99.90;;;;;;5050073;28;20225;-70
2022/01/20 10:58:33;;;;;;;0.60;0.60;;;5.90;99.90;;;;;;5044007;28;20202;-72
2022/01/20 11:01:00;;;;;;;1.75;1.20;;;5.80;99.90;;;;;;5049749;28;20206;-70
2022/01/20 11:03:30;;;;;;;0.93;0.93;;;5.70;99.90;;;;;;5049482;28;20198;-71
2022/01/20 11:05:58;;;;;;;1.92;1.38;;;5.70;99.90;;;;;;5049946;28;20692;-69
2022/01/20 11:08:25;;;;;;;1.50;1.30;;;5.90;99.90;;;;;;5046250;28;20886;-70
2022/01/20 11:10:54;;;;;;;7.38;1.40;;;6.10;99.90;;;;;;5043148;28;20201;-69
2022/01/20 11:13:22;;;;;;;2.35;1.40;;;6.20;99.90;;;;;;5050345;28;20662;-69
2022/01/20 11:15:51;;;;;;;3.28;1.00;;;6.50;99.90;;;;;;5057766;28;20221;-70
2022/01/20 11:18:18;;;;;;;5.13;0.82;;;7.00;99.90;;;;;;5051870;28;20629;-69
2022/01/20 11:20:46;;;;;;;1.95;0.70;;;7.40;99.90;;;;;;5054273;28;20256;-70
2022/01/20 11:23:13;;;;;;;1.80;1.52;;;7.30;99.90;;;;;;5051099;28;20213;-70
2022/01/20 11:25:43;;;;;;;1.23;0.95;;;7.20;99.90;;;;;;5049866;28;20255;-70
2022/01/20 11:28:12;;;;;;;8.80;0.75;;;7.00;99.90;;;;;;5078840;22;20252;-67
2022/01/20 11:30:42;;;;;;;1.40;0.95;;;6.80;99.90;;;;;;5061146;28;20201;-68
2022/01/20 11:33:11;;;;;;;2.35;0.68;;;6.50;99.90;;;;;;5055764;28;20318;-68
2022/01/20 11:35:41;;;;;;;2.15;0.85;;;6.40;99.90;;;;;;5062415;28;20613;-68
2022/01/20 11:38:09;;;;;;;4.68;0.82;;;6.40;99.90;;;;;;5050736;28;20252;-68
2022/01/20 11:40:47;;;;;;;2.10;0.65;;;6.30;99.90;;;;;;5046558;28;20210;-68
2022/01/20 11:43:14;;;;;;;2.90;1.17;;;6.10;99.90;;;;;;5047047;28;20773;-68
2022/01/20 11:45:46;;;;;;;1.00;0.63;;;6.10;99.90;;;;;;5046066;28;20561;-68
2022/01/20 11:48:16;;;;;;;3.80;1.45;;;6.30;99.90;;;;;;5054139;28;20232;-68
2022/01/20 11:50:43;;;;;;;2.67;1.00;;;6.40;99.90;;;;;;5054307;28;20205;-68
2022/01/20 11:53:12;;;;;;;2.45;1.02;;;6.50;99.90;;;;;;5048225;28;20206;-68
2022/01/20 11:55:47;;;;;;;3.75;1.00;;;6.40;99.90;;;;;;5045867;28;20233;-68
2022/01/20 11:58:16;;;;;;;1.15;0.80;;;6.10;99.90;;;;;;5046406;28;20222;-68
2022/01/20 12:00:42;;;;;;;2.05;1.95;;;6.00;99.90;;;;;;5048647;28;20277;-68
2022/01/20 12:03:11;;;;;;;3.47;1.33;;;5.90;99.90;;;;;;5045312;28;20281;-68
2022/01/20 12:05:39;;;;;;;5.50;1.17;;;6.20;99.90;;;;;;5054770;28;20304;-68
2022/01/20 12:08:10;;;;;;;1.85;0.70;;;6.20;99.90;;;;;;5050661;28;20214;-68
2022/01/20 12:10:37;;;;;;;1.95;1.42;;;6.40;99.90;;;;;;5056623;28;20228;-68
2022/01/20 12:13:09;;;;;;;2.25;1.05;;;6.80;99.90;;;;;;5054958;28;20293;-67
2022/01/20 12:15:46;;;;;;;2.13;0.60;;;7.30;99.90;;;;;;5054843;28;20288;-68
2022/01/20 12:18:14;;;;;;;1.42;1.33;;;7.60;99.90;;;;;;5050683;28;20233;-67
2022/01/20 12:20:43;;;;;;;2.83;1.10;;;7.70;99.90;;;;;;5046753;28;20285;-68
2022/01/20 12:23:10;;;;;;;4.13;1.73;;;8.00;99.90;;;;;;5047710;28;20956;-67
2022/01/20 12:25:37;;;;;;;7.40;1.50;;;8.40;99.90;;;;;;5059503;28;20839;-68
2022/01/20 12:28:06;;;;;;;0.60;0.40;;;8.90;99.90;;;;;;5053210;28;20491;-67
2022/01/20 12:30:34;;;;;;;3.07;1.07;;;9.20;99.90;;;;;;5046408;28;20480;-68
2022/01/20 12:33:03;;;;;;;1.67;1.00;;;9.20;99.90;;;;;;5059297;28;20455;-68
2022/01/20 12:35:38;;;;;;;1.93;0.70;;;9.20;99.90;;;;;;5061546;28;20540;-68
2022/01/20 12:38:17;;;;;;;1.33;0.67;;;9.10;99.90;;;;;;5050373;28;20474;-67
2022/01/20 12:40:47;;;;;;;1.67;0.90;;;9.30;99.90;;;;;;5047433;28;20582;-69
2022/01/20 12:43:14;;;;;;;2.73;0.97;;;9.30;99.90;;;;;;5054752;28;20464;-68
2022/01/20 12:45:55;;;;;;;10.63;1.37;;;9.00;99.90;;;;;;5059791;28;20510;-69
2022/01/20 12:48:22;;;;;;;0.90;0.70;;;8.40;99.90;;;;;;5048846;28;20545;-69
2022/01/20 12:50:54;;;;;;;2.83;1.60;;;8.00;99.90;;;;;;5063430;28;20490;-68
2022/01/20 12:53:36;;;;;;;8.10;1.35;;;7.80;99.90;;;;;;5049600;28;20931;-70
2022/01/20 12:56:04;;;;;;;3.13;1.43;;;7.50;99.90;;;;;;5046748;28;20668;-69
2022/01/20 12:58:31;;;;;;;2.65;1.05;;;7.40;99.90;;;;;;5045219;28;20549;-70
2022/01/20 13:01:04;;;;;;;2.97;0.98;;;7.30;99.90;;;;;;5050399;28;20691;-70
2022/01/20 13:03:37;;;;;;;1.25;0.60;;;7.30;99.90;;;;;;5045228;28;20213;-69
2022/01/20 13:06:06;;;;;;;8.60;1.05;;;7.20;99.90;;;;;;5050003;28;20254;-68
2022/01/20 13:08:38;;;;;;;7.82;1.33;;;7.10;99.90;;;;;;5049044;28;20230;-70
2022/01/20 13:11:08;;;;;;;0.90;0.75;;;7.00;99.90;;;;;;5054234;28;20304;-73
2022/01/20 13:13:35;;;;;;;5.80;1.25;;;6.90;99.90;;;;;;5050957;28;20288;-69
2022/01/20 13:16:11;;;;;;;2.45;1.33;;;7.00;99.90;;;;;;5049785;28;20261;-71
2022/01/20 13:18:37;;;;;;;2.33;1.02;;;7.10;99.90;;;;;;5063001;28;20209;-69
2022/01/20 13:21:07;;;;;;;1.80;0.60;;;7.20;99.90;;;;;;5055176;28;20225;-70
2022/01/20 13:23:57;;;;;;;4.75;0.75;;;7.30;99.90;;;;;;5045977;28;20279;-72
2022/01/20 13:26:25;;;;;;;1.92;1.35;;;6.80;99.90;;;;;;5046533;28;20198;-71
2022/01/20 13:29:04;;;;;;;2.83;1.63;;;6.50;99.90;;;;;;5049104;28;20267;-71
2022/01/20 13:31:31;;;;;;;2.85;1.20;;;6.20;99.90;;;;;;5052355;28;20247;-72
2022/01/20 13:34:07;;;;;;;3.50;1.80;;;6.20;99.90;;;;;;5057721;28;20251;-70
2022/01/20 13:36:39;;;;;;;0.93;0.93;;;6.30;99.90;;;;;;5055581;28;20233;-72
2022/01/20 13:39:08;;;;;;;3.28;1.13;;;6.40;99.90;;;;;;5046668;28;20206;-70
2022/01/20 13:41:35;;;;;;;4.40;1.50;;;6.40;99.90;;;;;;5048874;28;20608;-71
2022/01/20 13:47:07;;;;;;;3.60;0.85;;;6.60;99.90;;;;;;5047317;28;20348;-71
2022/01/20 13:49:34;;;;;;;4.35;1.02;;;6.70;99.90;;;;;;5049880;28;20194;-70
2022/01/20 13:52:06;;;;;;;2.08;0.80;;;6.80;99.90;;;;;;5053644;28;20214;-70
2022/01/20 13:54:43;;;;;;;4.72;2.75;;;6.60;99.90;;;;;;5057749;28;20206;-69
2022/01/20 13:57:10;;;;;;;8.73;1.75;;;6.40;99.90;;;;;;5046849;28;20226;-70
2022/01/20 13:59:48;;;;;;;1.60;0.82;;;6.10;99.90;;;;;;5051634;28;20283;-69
2022/01/20 14:02:15;;;;;;;1.35;0.93;;;5.90;99.90;;;;;;5054168;28;20733;-69
2022/01/20 14:04:42;;;;;;;2.05;1.08;;;5.80;99.90;;;;;;5050979;28;20536;-69
2022/01/20 14:07:09;;;;;;;5.25;1.67;;;5.70;99.90;;;;;;5052929;28;20225;-70
2022/01/20 14:09:36;;;;;;;3.85;1.00;;;5.70;99.90;;;;;;5054730;28;20712;-69
2022/01/20 14:12:05;;;;;;;5.53;0.95;;;5.70;99.90;;;;;;5050389;28;20532;-69
2022/01/20 14:14:31;;;;;;;1.83;1.00;;;5.60;99.90;;;;;;5054537;28;20201;-70
2022/01/20 14:17:05;;;;;;;2.45;0.82;;;5.60;99.90;;;;;;5052389;28;20244;-70
2022/01/20 14:19:35;;;;;;;1.10;1.00;;;5.70;99.90;;;;;;5050869;28;20198;-69
2022/01/20 14:22:03;;;;;;;2.97;0.80;;;5.80;99.90;;;;;;5055945;28;20225;-70
2022/01/20 14:24:29;;;;;;;1.88;0.77;;;5.90;99.90;;;;;;5053184;28;20347;-68
2022/01/20 14:27:08;;;;;;;0.98;0.85;;;6.00;99.90;;;;;;5061512;28;20225;-68